createdAt,value
2023-01-01T06:25:01.075Z,100.00
2023-01-01T06:27:30.645Z,100.00
2023-01-01T06:30:00.133Z,100.00
2023-01-01T06:32:29.769Z,100.00
2023-01-01T06:34:59.627Z,100.00
2023-01-01T06:37:30.125Z,100.00
2023-01-01T06:40:00.957Z,100.00
2023-01-01T06:42:33.830Z,100.00
2023-01-01T06:45:03.530Z,100.00
2023-01-01T06:47:36.193Z,100.00
2023-01-01T06:50:10.150Z,100.00
2023-01-01T06:52:39.652Z,100.00
2023-01-01T06:55:11.198Z,100.00
2023-01-01T06:57:40.944Z,100.00
2023-01-01T07:00:12.683Z,100.00
2023-01-01T07:02:43.274Z,100.00
2023-01-01T07:05:12.829Z,100.00
2023-01-01T07:07:42.740Z,100.00
2023-01-01T07:10:13.783Z,100.00
2023-01-01T07:12:43.209Z,100.00
2023-01-01T07:15:13.198Z,100.00
2023-01-01T07:17:42.635Z,100.00
2023-01-01T07:20:12.898Z,100.00
2023-01-01T07:22:42.751Z,100.00
2023-01-01T07:25:17.022Z,100.00
2023-01-01T07:27:47.005Z,100.00
2023-01-01T07:30:16.767Z,100.00
2023-01-01T07:32:46.341Z,100.00
2023-01-01T07:35:15.838Z,100.00
2023-01-01T07:37:45.230Z,100.00
2023-01-01T07:40:16.254Z,100.00
2023-01-01T07:42:45.683Z,100.00
2023-01-01T07:45:15.523Z,100.00
2023-01-01T07:47:54.219Z,100.00
2023-01-01T07:50:28.244Z,100.00
2023-01-01T07:52:58.506Z,100.00
2023-01-01T07:55:29.258Z,100.00
2023-01-01T07:57:58.594Z,100.00
2023-01-01T08:00:28.950Z,100.00
2023-01-01T08:02:58.780Z,100.00
2023-01-01T08:05:28.379Z,100.00
2023-01-01T08:07:57.800Z,100.00
2023-01-01T08:10:28.584Z,100.00
2023-01-01T08:13:01.963Z,100.00
2023-01-01T08:15:31.741Z,100.00
2023-01-01T08:18:04.157Z,100.00
2023-01-01T08:20:34.970Z,100.00
2023-01-01T08:23:07.599Z,100.00
2023-01-01T08:25:38.705Z,100.00
2023-01-01T08:28:08.089Z,100.00
2023-01-01T08:30:37.540Z,100.00
2023-01-01T08:33:07.175Z,100.00
2023-01-01T08:35:39.183Z,100.00
2023-01-01T08:38:09.711Z,100.00
2023-01-01T08:40:40.927Z,100.00
2023-01-01T08:43:10.347Z,100.00
2023-01-01T08:45:39.783Z,100.00
2023-01-01T08:48:09.930Z,100.00
2023-01-01T08:50:39.384Z,100.00
2023-01-01T08:53:08.813Z,100.00
2023-01-01T08:55:38.227Z,100.00
2023-01-01T08:58:09.143Z,100.00
2023-01-01T09:00:38.633Z,100.00
2023-01-01T09:03:08.287Z,100.00
2023-01-01T09:05:37.853Z,100.00
2023-01-01T09:08:08.824Z,100.00
2023-01-01T09:10:38.236Z,100.00
2023-01-01T09:13:09.488Z,100.00
2023-01-01T09:15:39.371Z,100.00
2023-01-01T09:18:08.871Z,100.00
2023-01-01T09:20:39.094Z,100.00
2023-01-01T09:23:09.745Z,100.00
2023-01-01T09:25:39.393Z,100.00
2023-01-01T09:28:14.375Z,100.00
2023-01-01T09:30:43.818Z,100.00
2023-01-01T09:33:13.361Z,100.00
2023-01-01T09:35:44.418Z,100.00
2023-01-01T09:38:14.687Z,100.00
2023-01-01T09:40:57.928Z,100.00
2023-01-01T09:43:43.191Z,100.00
2023-01-01T09:46:13.227Z,100.00
2023-01-01T09:48:53.017Z,100.00
2023-01-01T09:51:24.577Z,100.00
2023-01-01T09:54:02.196Z,100.00
2023-01-01T09:56:33.292Z,100.00
2023-01-01T09:59:04.143Z,100.00
2023-01-01T10:01:46.037Z,100.00
2023-01-01T10:04:42.728Z,100.00
2023-01-01T10:07:22.589Z,100.00
2023-01-01T10:10:05.252Z,100.00
2023-01-01T10:12:45.425Z,100.00
2023-01-01T10:15:25.038Z,100.00
2023-01-01T10:18:00.153Z,100.00
2023-01-01T10:20:36.117Z,100.00
2023-01-01T10:23:16.544Z,100.00
2023-01-01T10:25:46.729Z,100.00
2023-01-01T10:28:25.023Z,100.00
2023-01-01T10:31:21.303Z,100.00
2023-01-01T10:33:50.787Z,100.00
2023-01-01T10:36:21.686Z,100.00
2023-01-01T10:38:52.236Z,100.00
2023-01-01T10:41:22.093Z,100.00
2023-01-01T10:43:52.118Z,100.00
2023-01-01T10:46:31.625Z,100.00
2023-01-01T10:49:11.083Z,100.00
2023-01-01T10:51:46.520Z,96.48
2023-01-01T10:54:34.247Z,90.37
2023-01-01T10:57:17.884Z,97.47
2023-01-01T10:59:53.943Z,93.28
2023-01-01T11:02:28.034Z,93.46
2023-01-01T11:05:22.055Z,91.51
2023-01-01T11:07:52.158Z,88.53
2023-01-01T11:10:25.647Z,84.93
2023-01-01T11:13:10.912Z,89.74
2023-01-01T11:15:43.381Z,85.69
2023-01-01T11:18:17.806Z,87.47
2023-01-01T11:20:54.015Z,87.62
2023-01-01T11:23:36.720Z,82.44
2023-01-01T11:26:21.562Z,84.00
2023-01-01T11:29:04.055Z,84.99
2023-01-01T11:31:40.161Z,83.74
2023-01-01T11:34:33.654Z,81.33
2023-01-01T11:37:25.173Z,82.00
2023-01-01T11:39:57.725Z,83.52
2023-01-01T11:42:30.047Z,82.15
2023-01-01T11:45:03.143Z,80.28
2023-01-01T11:47:38.545Z,83.55
2023-01-01T11:50:26.894Z,83.05
2023-01-01T11:52:59.884Z,85.61
2023-01-01T11:55:42.102Z,83.98
2023-01-01T11:58:20.202Z,82.29
2023-01-01T12:00:55.359Z,84.68
2023-01-01T12:03:33.610Z,81.43
2023-01-01T12:06:12.305Z,81.76
2023-01-01T12:08:55.291Z,81.03
2023-01-01T12:11:34.182Z,83.75
2023-01-01T12:14:19.583Z,84.55
2023-01-01T12:17:00.383Z,77.75
2023-01-01T12:19:36.025Z,76.10
2023-01-01T12:22:16.714Z,75.12
2023-01-01T12:24:49.109Z,76.40
2023-01-01T12:27:36.332Z,74.30
2023-01-01T12:30:16.835Z,74.53
2023-01-01T12:33:22.626Z,73.54
2023-01-01T12:36:09.910Z,74.65
2023-01-01T12:39:24.022Z,72.79
2023-01-01T12:42:06.239Z,73.00
2023-01-01T12:44:47.400Z,71.76
2023-01-01T12:47:40.319Z,71.76
2023-01-01T12:50:22.005Z,72.54
2023-01-01T12:53:08.206Z,72.44
2023-01-01T12:56:22.796Z,71.60
2023-01-01T12:58:59.110Z,73.03
2023-01-01T13:01:34.635Z,74.81
2023-01-01T13:04:09.187Z,73.05
2023-01-01T13:06:44.854Z,74.26
2023-01-01T13:09:20.743Z,73.76
2023-01-01T13:12:00.227Z,74.42
2023-01-01T13:14:29.731Z,74.14
2023-01-01T13:16:59.587Z,75.40
2023-01-01T13:19:35.245Z,74.42
2023-01-01T13:22:42.826Z,76.09
2023-01-01T13:25:25.065Z,76.21
2023-01-01T13:28:13.577Z,75.81
2023-01-01T13:30:52.184Z,77.31
2023-01-01T13:33:27.215Z,77.00
2023-01-01T13:36:32.251Z,77.90
2023-01-01T13:39:02.949Z,75.59
2023-01-01T13:41:41.439Z,74.29
2023-01-01T13:44:21.557Z,74.42
2023-01-01T13:47:12.285Z,75.58
2023-01-01T13:50:05.967Z,74.17
2023-01-01T13:53:06.179Z,70.83
2023-01-01T13:56:09.716Z,70.98
2023-01-01T13:59:20.812Z,72.89
2023-01-01T14:01:59.386Z,72.67
2023-01-01T14:04:43.756Z,74.24
2023-01-01T14:10:28.824Z,73.77
2023-01-01T14:13:16.543Z,77.21
2023-01-01T14:15:55.721Z,77.74
2023-01-01T14:18:34.566Z,79.38
2023-01-01T14:21:09.843Z,79.78
2023-01-01T14:23:45.005Z,77.34
2023-01-01T14:26:19.059Z,77.23
2023-01-01T14:28:48.991Z,75.34
2023-01-01T14:31:23.922Z,75.06
2023-01-01T14:33:53.323Z,75.38
2023-01-01T14:36:26.410Z,73.63
2023-01-01T14:39:00.590Z,74.53
2023-01-01T14:41:33.765Z,73.81
2023-01-01T14:44:11.114Z,74.01
2023-01-01T14:46:46.134Z,74.47
2023-01-01T14:49:22.815Z,75.29
2023-01-01T14:52:01.371Z,76.62
2023-01-01T14:54:37.013Z,78.46
2023-01-01T14:57:13.038Z,81.21
2023-01-01T14:59:51.906Z,84.09
2023-01-01T15:02:26.596Z,87.26
2023-01-01T15:04:56.611Z,90.13
2023-01-01T15:07:29.572Z,93.14
2023-01-01T15:10:03.454Z,95.13
2023-01-01T15:12:37.291Z,97.59
2023-01-01T15:15:36.273Z,99.35
2023-01-01T15:18:07.700Z,100.00
2023-01-01T15:20:37.264Z,100.00
2023-01-01T15:23:10.272Z,100.00
2023-01-01T15:25:43.907Z,100.00
2023-01-01T15:28:20.707Z,100.00
2023-01-01T15:30:55.509Z,100.00
2023-01-01T15:33:27.158Z,100.00
2023-01-01T15:36:01.052Z,100.00
2023-01-01T15:38:35.042Z,100.00
2023-01-01T15:41:27.499Z,100.00
2023-01-01T15:44:10.292Z,100.00
2023-01-01T15:46:48.474Z,100.00
2023-01-01T15:49:28.120Z,100.00
2023-01-01T15:52:03.813Z,100.00
2023-01-01T15:54:39.197Z,100.00
2023-01-01T15:57:21.396Z,100.00
2023-01-01T15:59:53.669Z,100.00
2023-01-01T16:02:30.234Z,100.00
2023-01-01T16:05:01.830Z,100.00
2023-01-01T16:07:32.573Z,100.00
2023-01-01T16:10:14.730Z,100.00
2023-01-01T16:12:44.201Z,100.00
2023-01-01T16:15:16.934Z,100.00
2023-01-01T16:17:47.139Z,100.00
2023-01-01T16:20:21.539Z,100.00
2023-01-01T16:22:51.150Z,100.00
2023-01-01T16:25:23.457Z,100.00
2023-01-01T16:27:53.204Z,100.00
2023-01-01T16:30:27.428Z,100.00
2023-01-01T16:32:57.002Z,100.00
2023-01-01T16:35:27.907Z,100.00
2023-01-01T16:37:57.789Z,100.00
2023-01-01T16:40:30.286Z,100.00
2023-01-01T16:43:04.319Z,100.00
2023-01-01T16:45:33.982Z,100.00
2023-01-01T16:48:03.711Z,100.00
2023-01-01T16:50:34.540Z,100.00
2023-01-01T16:53:03.959Z,100.00
2023-01-01T16:55:33.399Z,100.00
2023-01-01T16:58:38.656Z,100.00
2023-01-01T17:01:00.121Z,100.00
2023-01-01T17:03:29.958Z,100.00
2023-01-01T17:06:06.463Z,100.00
2023-01-01T17:08:38.404Z,100.00
2023-01-01T17:11:13.929Z,100.00
2023-01-01T17:13:44.947Z,100.00
2023-01-01T17:16:21.407Z,100.00
2023-01-01T17:21:49.505Z,100.00
2023-01-01T17:24:21.348Z,100.00
2023-01-01T17:26:55.022Z,100.00
2023-01-01T17:29:25.736Z,100.00
2023-01-01T17:31:55.152Z,100.00
2023-01-01T17:34:24.581Z,100.00
2023-01-01T17:36:55.345Z,100.00
2023-01-01T17:39:24.766Z,100.00
2023-01-01T17:41:54.266Z,100.00
2023-01-01T17:44:23.866Z,100.00
2023-01-01T17:46:55.263Z,100.00
2023-01-01T17:49:24.941Z,100.00
2023-01-01T17:51:55.707Z,100.00
2023-01-01T17:54:25.220Z,100.00
2023-01-01T17:56:58.210Z,100.00
2023-01-01T17:59:27.758Z,100.00
2023-01-01T18:01:58.030Z,100.00
2023-01-01T18:04:27.658Z,100.00
2023-01-01T18:07:04.355Z,100.00
2023-01-01T18:09:38.114Z,100.00
2023-01-01T18:12:08.317Z,100.00
2023-01-01T18:14:37.747Z,100.00
2023-01-01T18:17:07.135Z,100.00
2023-01-01T18:19:38.835Z,100.00
2023-01-01T18:22:09.536Z,100.00
2023-01-01T18:24:38.960Z,100.00
2023-01-01T18:27:08.901Z,100.00
2023-01-01T18:29:38.315Z,100.00
2023-01-01T18:32:07.690Z,100.00
2023-01-01T18:34:37.159Z,100.00
2023-01-01T18:37:06.669Z,100.00
2023-01-01T18:39:41.693Z,100.00
2023-01-01T18:42:39.968Z,100.00
2023-01-01T18:45:18.915Z,100.00
2023-01-01T18:47:48.987Z,100.00
2023-01-01T18:50:25.737Z,100.00
2023-01-01T18:53:07.582Z,100.00
2023-01-01T18:55:38.373Z,100.00
2023-01-01T18:58:26.539Z,100.00
2023-01-01T19:00:56.126Z,100.00
2023-01-01T19:03:28.890Z,100.00
2023-01-01T19:06:00.232Z,100.00
2023-01-01T19:08:31.403Z,100.00
2023-01-01T19:11:04.262Z,100.00
2023-01-01T19:13:36.128Z,100.00
2023-01-01T19:16:24.475Z,100.00
2023-01-01T19:18:58.743Z,100.00
2023-01-01T19:21:28.182Z,100.00
2023-01-01T19:24:02.131Z,100.00
2023-01-01T19:26:36.362Z,100.00
2023-01-01T19:29:17.140Z,100.00
2023-01-01T19:31:52.042Z,100.00
2023-01-01T19:34:22.652Z,100.00
2023-01-01T19:36:52.824Z,100.00
2023-01-01T19:39:22.317Z,100.00
2023-01-01T19:41:53.137Z,100.00
2023-01-01T19:44:25.217Z,100.00
2023-01-01T19:46:56.494Z,100.00
2023-01-01T19:49:26.002Z,100.00
2023-01-01T19:51:55.463Z,100.00
2023-01-01T19:54:25.003Z,100.00
2023-01-01T19:56:55.821Z,100.00
2023-01-01T19:59:31.109Z,100.00
2023-01-01T20:02:43.329Z,100.00
2023-01-01T20:04:53.073Z,100.00
2023-01-01T20:07:22.727Z,100.00
2023-01-01T20:09:52.224Z,100.00
2023-01-01T20:12:23.031Z,100.00
2023-01-01T20:14:53.734Z,100.00
2023-01-01T20:17:23.183Z,100.00
2023-01-01T20:19:54.120Z,100.00
2023-01-01T20:22:23.801Z,100.00
2023-01-01T20:24:53.347Z,100.00
2023-01-01T20:27:26.901Z,100.00
2023-01-01T20:29:57.779Z,100.00
2023-01-01T20:32:28.146Z,100.00
2023-01-01T20:34:57.806Z,100.00
2023-01-01T20:37:38.786Z,100.00
2023-01-01T20:40:12.353Z,100.00
2023-01-01T20:42:43.537Z,100.00
2023-01-01T20:45:13.703Z,100.00
2023-01-01T20:47:43.132Z,100.00
2023-01-01T20:50:12.617Z,100.00
2023-01-01T20:52:42.080Z,100.00
2023-01-01T20:55:11.723Z,100.00
2023-01-01T20:57:42.574Z,100.00
2023-01-01T21:00:13.808Z,100.00
2023-01-01T21:02:43.419Z,100.00
2023-01-01T21:05:12.939Z,100.00
2023-01-01T21:07:42.377Z,100.00
2023-01-01T21:10:12.059Z,100.00
2023-01-01T21:12:42.858Z,100.00
2023-01-01T21:15:16.588Z,100.00
2023-01-01T21:17:46.172Z,100.00
2023-01-01T21:20:15.888Z,100.00
2023-01-01T21:22:47.762Z,100.00
2023-01-01T21:25:50.391Z,100.00
2023-01-01T21:28:18.321Z,100.00
2023-01-01T21:30:53.381Z,100.00
2023-01-01T21:33:30.741Z,100.00
2023-01-01T21:36:03.322Z,100.00
2023-01-01T21:38:33.864Z,100.00
2023-01-01T21:41:03.745Z,100.00
2023-01-01T21:43:40.991Z,100.00
2023-01-01T21:46:34.855Z,100.00
2023-01-01T21:49:17.551Z,100.00
2023-01-01T21:51:53.968Z,100.00
2023-01-01T21:54:33.177Z,100.00
2023-01-01T21:57:15.877Z,100.00
2023-01-01T21:59:48.056Z,100.00
2023-01-01T22:02:48.095Z,100.00
2023-01-01T22:05:37.017Z,100.00
2023-01-01T22:08:26.035Z,100.00
2023-01-01T22:10:57.359Z,100.00
2023-01-01T22:13:28.392Z,100.00
2023-01-01T22:15:59.241Z,100.00
2023-01-01T22:18:30.970Z,100.00
2023-01-01T22:21:02.739Z,100.00
2023-01-01T22:23:41.833Z,100.00
2023-01-01T22:26:20.571Z,100.00
2023-01-01T22:28:59.278Z,100.00
2023-01-01T22:31:33.523Z,100.00
2023-01-01T22:34:06.579Z,100.00
2023-01-01T22:36:37.696Z,100.00
2023-01-01T22:39:25.037Z,100.00
2023-01-01T22:41:54.806Z,100.00
2023-01-01T22:44:24.542Z,100.00
2023-01-01T22:46:59.258Z,100.00
2023-01-01T22:49:39.401Z,100.00
2023-01-01T22:52:11.067Z,100.00
2023-01-01T22:54:40.805Z,100.00
2023-01-01T22:57:10.274Z,100.00
2023-01-01T22:59:39.796Z,100.00
2023-01-01T23:02:10.630Z,100.00
2023-01-01T23:04:40.122Z,100.00
2023-01-01T23:07:14.273Z,100.00
2023-01-01T23:09:44.196Z,100.00
2023-01-01T23:12:13.690Z,100.00
2023-01-01T23:15:00.681Z,100.00
2023-01-01T23:17:31.579Z,100.00
2023-01-01T23:20:01.004Z,100.00
2023-01-01T23:22:35.801Z,100.00
2023-01-01T23:25:08.470Z,100.00
2023-01-01T23:27:38.755Z,100.00
2023-01-01T23:30:11.085Z,100.00
2023-01-01T23:32:43.499Z,100.00
2023-01-01T23:35:13.507Z,100.00
2023-01-01T23:37:43.062Z,100.00
2023-01-01T23:40:13.710Z,100.00
2023-01-01T23:42:43.279Z,100.00
2023-01-01T23:45:12.946Z,100.00
2023-01-01T23:47:43.928Z,100.00
2023-01-01T23:50:13.673Z,100.00
2023-01-01T23:52:43.183Z,100.00
2023-01-01T23:55:12.751Z,100.00
2023-01-01T23:57:42.399Z,100.00
